sensor_id;sensor_type;location;lat;lon;timestamp;P1;durP1;ratioP1;P2;durP2;ratioP2
19087;SDS011;9676;50.916;13.352;2024-01-30T00:02:12;17.63;;;13.37;;
19087;SDS011;9676;50.916;13.352;2024-01-30T00:05:01;19.43;;;14.20;;
19087;SDS011;9676;50.916;13.352;2024-01-30T00:07:52;15.47;;;13.10;;
19087;SDS011;9676;50.916;13.352;2024-01-30T00:10:41;14.37;;;12.87;;
19087;SDS011;9676;50.916;13.352;2024-01-30T00:13:30;15.70;;;13.40;;
19087;SDS011;9676;50.916;13.352;2024-01-30T00:16:21;16.30;;;13.30;;
19087;SDS011;9676;50.916;13.352;2024-01-30T00:19:12;14.60;;;13.07;;
19087;SDS011;9676;50.916;13.352;2024-01-30T00:22:02;14.57;;;13.07;;
19087;SDS011;9676;50.916;13.352;2024-01-30T00:24:51;14.67;;;13.13;;
19087;SDS011;9676;50.916;13.352;2024-01-30T00:27:41;15.30;;;13.73;;
19087;SDS011;9676;50.916;13.352;2024-01-30T00:30:30;16.30;;;12.93;;
19087;SDS011;9676;50.916;13.352;2024-01-30T00:33:21;17.23;;;14.03;;
19087;SDS011;9676;50.916;13.352;2024-01-30T00:36:10;14.57;;;13.03;;
19087;SDS011;9676;50.916;13.352;2024-01-30T00:39:00;15.10;;;12.90;;
19087;SDS011;9676;50.916;13.352;2024-01-30T00:41:53;17.23;;;13.80;;
19087;SDS011;9676;50.916;13.352;2024-01-30T00:44:42;15.57;;;13.63;;
19087;SDS011;9676;50.916;13.352;2024-01-30T00:47:32;16.53;;;14.20;;
19087;SDS011;9676;50.916;13.352;2024-01-30T00:50:22;16.00;;;13.57;;
19087;SDS011;9676;50.916;13.352;2024-01-30T00:53:12;17.30;;;13.60;;
19087;SDS011;9676;50.916;13.352;2024-01-30T00:56:01;15.87;;;14.03;;
19087;SDS011;9676;50.916;13.352;2024-01-30T00:58:51;15.50;;;13.43;;
19087;SDS011;9676;50.916;13.352;2024-01-30T01:01:40;15.43;;;13.80;;
19087;SDS011;9676;50.916;13.352;2024-01-30T01:04:30;18.43;;;13.90;;
19087;SDS011;9676;50.916;13.352;2024-01-30T01:07:21;16.00;;;14.30;;
19087;SDS011;9676;50.916;13.352;2024-01-30T01:10:10;14.50;;;13.10;;
19087;SDS011;9676;50.916;13.352;2024-01-30T01:13:01;16.23;;;13.60;;
19087;SDS011;9676;50.916;13.352;2024-01-30T01:15:50;14.67;;;12.87;;
19087;SDS011;9676;50.916;13.352;2024-01-30T01:18:40;13.90;;;12.43;;
19087;SDS011;9676;50.916;13.352;2024-01-30T01:21:29;14.50;;;13.10;;
19087;SDS011;9676;50.916;13.352;2024-01-30T01:24:20;14.70;;;13.10;;
19087;SDS011;9676;50.916;13.352;2024-01-30T01:27:09;14.63;;;12.90;;
19087;SDS011;9676;50.916;13.352;2024-01-30T01:29:58;15.17;;;13.57;;
19087;SDS011;9676;50.916;13.352;2024-01-30T01:32:48;17.27;;;13.47;;
19087;SDS011;9676;50.916;13.352;2024-01-30T01:35:42;16.83;;;13.87;;
19087;SDS011;9676;50.916;13.352;2024-01-30T01:38:32;14.90;;;13.40;;
19087;SDS011;9676;50.916;13.352;2024-01-30T01:41:23;15.77;;;13.57;;
19087;SDS011;9676;50.916;13.352;2024-01-30T01:44:12;15.90;;;13.40;;
19087;SDS011;9676;50.916;13.352;2024-01-30T01:47:02;15.97;;;14.27;;
19087;SDS011;9676;50.916;13.352;2024-01-30T01:49:51;16.40;;;13.60;;
19087;SDS011;9676;50.916;13.352;2024-01-30T01:52:41;18.30;;;13.97;;
19087;SDS011;9676;50.916;13.352;2024-01-30T01:55:30;15.77;;;13.70;;
19087;SDS011;9676;50.916;13.352;2024-01-30T01:58:22;16.50;;;13.70;;
19087;SDS011;9676;50.916;13.352;2024-01-30T02:01:16;15.20;;;13.47;;
19087;SDS011;9676;50.916;13.352;2024-01-30T02:04:07;14.83;;;12.70;;
19087;SDS011;9676;50.916;13.352;2024-01-30T02:06:57;14.50;;;12.80;;
19087;SDS011;9676;50.916;13.352;2024-01-30T02:09:47;15.43;;;13.93;;
19087;SDS011;9676;50.916;13.352;2024-01-30T02:12:36;15.60;;;13.60;;
19087;SDS011;9676;50.916;13.352;2024-01-30T02:15:27;15.70;;;13.30;;
19087;SDS011;9676;50.916;13.352;2024-01-30T02:18:17;15.00;;;12.87;;
19087;SDS011;9676;50.916;13.352;2024-01-30T02:21:09;13.57;;;12.07;;
19087;SDS011;9676;50.916;13.352;2024-01-30T02:23:59;13.47;;;12.07;;
19087;SDS011;9676;50.916;13.352;2024-01-30T02:26:49;12.87;;;11.67;;
19087;SDS011;9676;50.916;13.352;2024-01-30T02:29:39;12.80;;;11.53;;
19087;SDS011;9676;50.916;13.352;2024-01-30T02:32:28;13.63;;;12.23;;
19087;SDS011;9676;50.916;13.352;2024-01-30T02:35:18;12.80;;;11.60;;
19087;SDS011;9676;50.916;13.352;2024-01-30T02:38:08;12.47;;;11.23;;
19087;SDS011;9676;50.916;13.352;2024-01-30T02:40:58;12.67;;;11.43;;
19087;SDS011;9676;50.916;13.352;2024-01-30T02:43:47;12.80;;;11.50;;
19087;SDS011;9676;50.916;13.352;2024-01-30T02:46:37;12.10;;;11.00;;
19087;SDS011;9676;50.916;13.352;2024-01-30T02:49:26;12.40;;;11.30;;
19087;SDS011;9676;50.916;13.352;2024-01-30T02:52:15;13.17;;;11.63;;
19087;SDS011;9676;50.916;13.352;2024-01-30T02:55:07;13.33;;;11.80;;
19087;SDS011;9676;50.916;13.352;2024-01-30T02:57:57;13.57;;;12.27;;
19087;SDS011;9676;50.916;13.352;2024-01-30T03:00:46;13.33;;;12.03;;
19087;SDS011;9676;50.916;13.352;2024-01-30T03:03:36;12.17;;;11.03;;
19087;SDS011;9676;50.916;13.352;2024-01-30T03:06:25;15.17;;;12.10;;
19087;SDS011;9676;50.916;13.352;2024-01-30T03:09:16;13.03;;;11.67;;
19087;SDS011;9676;50.916;13.352;2024-01-30T03:12:07;12.93;;;11.63;;
19087;SDS011;9676;50.916;13.352;2024-01-30T03:14:58;12.83;;;11.53;;
19087;SDS011;9676;50.916;13.352;2024-01-30T03:17:47;13.67;;;11.53;;
19087;SDS011;9676;50.916;13.352;2024-01-30T03:20:36;14.00;;;11.90;;
19087;SDS011;9676;50.916;13.352;2024-01-30T03:23:26;13.10;;;11.80;;
19087;SDS011;9676;50.916;13.352;2024-01-30T03:26:15;12.83;;;11.63;;
19087;SDS011;9676;50.916;13.352;2024-01-30T03:29:06;12.70;;;11.40;;
19087;SDS011;9676;50.916;13.352;2024-01-30T03:31:56;17.73;;;11.70;;
19087;SDS011;9676;50.916;13.352;2024-01-30T03:34:45;12.13;;;10.93;;
19087;SDS011;9676;50.916;13.352;2024-01-30T03:37:34;13.13;;;11.40;;
19087;SDS011;9676;50.916;13.352;2024-01-30T03:40:24;12.53;;;11.30;;
19087;SDS011;9676;50.916;13.352;2024-01-30T03:43:14;12.40;;;11.20;;
19087;SDS011;9676;50.916;13.352;2024-01-30T03:46:05;12.80;;;11.50;;
19087;SDS011;9676;50.916;13.352;2024-01-30T03:48:54;12.70;;;11.40;;
19087;SDS011;9676;50.916;13.352;2024-01-30T03:51:44;12.70;;;11.50;;
19087;SDS011;9676;50.916;13.352;2024-01-30T03:54:35;12.20;;;11.10;;
19087;SDS011;9676;50.916;13.352;2024-01-30T03:57:24;12.30;;;11.10;;
19087;SDS011;9676;50.916;13.352;2024-01-30T04:00:14;11.93;;;10.73;;
19087;SDS011;9676;50.916;13.352;2024-01-30T04:03:05;11.67;;;10.67;;
19087;SDS011;9676;50.916;13.352;2024-01-30T04:05:55;12.53;;;11.00;;
19087;SDS011;9676;50.916;13.352;2024-01-30T04:08:44;11.67;;;10.57;;
19087;SDS011;9676;50.916;13.352;2024-01-30T04:11:34;11.90;;;10.80;;
19087;SDS011;9676;50.916;13.352;2024-01-30T04:14:23;11.80;;;10.70;;
19087;SDS011;9676;50.916;13.352;2024-01-30T04:17:12;12.10;;;11.00;;
19087;SDS011;9676;50.916;13.352;2024-01-30T04:20:03;12.43;;;11.30;;
19087;SDS011;9676;50.916;13.352;2024-01-30T04:22:54;12.13;;;11.03;;
19087;SDS011;9676;50.916;13.352;2024-01-30T04:25:43;12.43;;;11.13;;
19087;SDS011;9676;50.916;13.352;2024-01-30T04:28:33;12.40;;;11.20;;
19087;SDS011;9676;50.916;13.352;2024-01-30T04:31:22;12.00;;;10.90;;
19087;SDS011;9676;50.916;13.352;2024-01-30T04:34:12;12.70;;;11.40;;
19087;SDS011;9676;50.916;13.352;2024-01-30T04:37:02;12.50;;;11.23;;
19087;SDS011;9676;50.916;13.352;2024-01-30T04:39:52;12.27;;;11.07;;
19087;SDS011;9676;50.916;13.352;2024-01-30T04:42:41;12.70;;;11.10;;
19087;SDS011;9676;50.916;13.352;2024-01-30T04:45:31;13.13;;;11.73;;
19087;SDS011;9676;50.916;13.352;2024-01-30T04:48:20;12.83;;;11.20;;
19087;SDS011;9676;50.916;13.352;2024-01-30T04:51:10;13.07;;;11.77;;
19087;SDS011;9676;50.916;13.352;2024-01-30T04:54:02;13.70;;;12.30;;
19087;SDS011;9676;50.916;13.352;2024-01-30T04:56:52;13.00;;;11.70;;
19087;SDS011;9676;50.916;13.352;2024-01-30T04:59:42;13.00;;;11.70;;
19087;SDS011;9676;50.916;13.352;2024-01-30T05:02:31;13.60;;;12.20;;
19087;SDS011;9676;50.916;13.352;2024-01-30T05:05:21;13.07;;;11.70;;
19087;SDS011;9676;50.916;13.352;2024-01-30T05:08:10;13.93;;;12.50;;
19087;SDS011;9676;50.916;13.352;2024-01-30T05:11:01;13.43;;;12.00;;
19087;SDS011;9676;50.916;13.352;2024-01-30T05:13:51;15.60;;;12.27;;
19087;SDS011;9676;50.916;13.352;2024-01-30T05:16:40;14.20;;;12.70;;
19087;SDS011;9676;50.916;13.352;2024-01-30T05:19:30;12.60;;;11.40;;
19087;SDS011;9676;50.916;13.352;2024-01-30T05:22:19;13.03;;;11.83;;
19087;SDS011;9676;50.916;13.352;2024-01-30T05:25:09;14.10;;;12.73;;
19087;SDS011;9676;50.916;13.352;2024-01-30T05:28:00;13.47;;;12.13;;
19087;SDS011;9676;50.916;13.352;2024-01-30T05:30:50;14.07;;;12.60;;
19087;SDS011;9676;50.916;13.352;2024-01-30T05:33:39;13.67;;;12.20;;
19087;SDS011;9676;50.916;13.352;2024-01-30T05:36:29;14.60;;;12.43;;
19087;SDS011;9676;50.916;13.352;2024-01-30T05:39:19;14.47;;;12.93;;
19087;SDS011;9676;50.916;13.352;2024-01-30T05:42:08;14.10;;;12.60;;
19087;SDS011;9676;50.916;13.352;2024-01-30T05:44:59;14.97;;;13.37;;
19087;SDS011;9676;50.916;13.352;2024-01-30T05:47:49;15.33;;;12.40;;
19087;SDS011;9676;50.916;13.352;2024-01-30T05:50:38;13.70;;;12.30;;
19087;SDS011;9676;50.916;13.352;2024-01-30T05:53:28;14.27;;;12.77;;
19087;SDS011;9676;50.916;13.352;2024-01-30T05:56:17;13.80;;;12.00;;
19087;SDS011;9676;50.916;13.352;2024-01-30T05:59:06;14.40;;;13.00;;
19087;SDS011;9676;50.916;13.352;2024-01-30T06:01:57;16.80;;;13.27;;
19087;SDS011;9676;50.916;13.352;2024-01-30T06:04:47;14.80;;;13.40;;
19087;SDS011;9676;50.916;13.352;2024-01-30T06:07:36;13.83;;;12.50;;
19087;SDS011;9676;50.916;13.352;2024-01-30T06:10:26;14.50;;;13.00;;
19087;SDS011;9676;50.916;13.352;2024-01-30T06:13:15;15.03;;;13.50;;
19087;SDS011;9676;50.916;13.352;2024-01-30T06:16:08;14.27;;;12.77;;
19087;SDS011;9676;50.916;13.352;2024-01-30T06:19:00;15.13;;;13.17;;
19087;SDS011;9676;50.916;13.352;2024-01-30T06:21:49;15.00;;;12.63;;
19087;SDS011;9676;50.916;13.352;2024-01-30T06:24:39;14.47;;;12.70;;
19087;SDS011;9676;50.916;13.352;2024-01-30T06:27:28;14.70;;;13.20;;
19087;SDS011;9676;50.916;13.352;2024-01-30T06:30:18;13.63;;;12.13;;
19087;SDS011;9676;50.916;13.352;2024-01-30T06:33:07;14.37;;;12.87;;
19087;SDS011;9676;50.916;13.352;2024-01-30T06:35:58;14.90;;;13.23;;
19087;SDS011;9676;50.916;13.352;2024-01-30T06:38:47;15.27;;;13.67;;
19087;SDS011;9676;50.916;13.352;2024-01-30T06:41:37;16.60;;;14.10;;
19087;SDS011;9676;50.916;13.352;2024-01-30T06:44:26;19.57;;;13.93;;
19087;SDS011;9676;50.916;13.352;2024-01-30T06:47:19;21.10;;;15.40;;
19087;SDS011;9676;50.916;13.352;2024-01-30T06:50:09;21.07;;;15.20;;
19087;SDS011;9676;50.916;13.352;2024-01-30T06:53:00;22.70;;;16.40;;
19087;SDS011;9676;50.916;13.352;2024-01-30T06:55:51;24.37;;;16.90;;
19087;SDS011;9676;50.916;13.352;2024-01-30T06:58:41;26.30;;;17.63;;
19087;SDS011;9676;50.916;13.352;2024-01-30T07:01:30;19.50;;;14.77;;
19087;SDS011;9676;50.916;13.352;2024-01-30T07:04:20;21.27;;;14.97;;
19087;SDS011;9676;50.916;13.352;2024-01-30T07:07:09;17.70;;;14.97;;
19087;SDS011;9676;50.916;13.352;2024-01-30T07:10:02;17.67;;;13.33;;
19087;SDS011;9676;50.916;13.352;2024-01-30T07:12:53;16.47;;;13.50;;
19087;SDS011;9676;50.916;13.352;2024-01-30T07:15:42;15.00;;;13.03;;
19087;SDS011;9676;50.916;13.352;2024-01-30T07:18:31;15.30;;;13.83;;
19087;SDS011;9676;50.916;13.352;2024-01-30T07:21:21;14.03;;;12.53;;
19087;SDS011;9676;50.916;13.352;2024-01-30T07:24:15;14.23;;;12.73;;
19087;SDS011;9676;50.916;13.352;2024-01-30T07:27:06;16.57;;;13.80;;
19087;SDS011;9676;50.916;13.352;2024-01-30T07:29:55;17.30;;;12.67;;
19087;SDS011;9676;50.916;13.352;2024-01-30T07:32:45;14.53;;;13.07;;
19087;SDS011;9676;50.916;13.352;2024-01-30T07:35:35;13.90;;;12.50;;
19087;SDS011;9676;50.916;13.352;2024-01-30T07:38:25;15.00;;;13.50;;
19087;SDS011;9676;50.916;13.352;2024-01-30T07:41:14;14.77;;;13.20;;
19087;SDS011;9676;50.916;13.352;2024-01-30T07:44:05;15.80;;;14.10;;
19087;SDS011;9676;50.916;13.352;2024-01-30T07:46:54;15.83;;;14.23;;
19087;SDS011;9676;50.916;13.352;2024-01-30T07:49:44;15.07;;;13.47;;
19087;SDS011;9676;50.916;13.352;2024-01-30T07:52:34;15.40;;;13.80;;
19087;SDS011;9676;50.916;13.352;2024-01-30T07:55:24;15.93;;;13.80;;
19087;SDS011;9676;50.916;13.352;2024-01-30T07:58:16;15.80;;;13.83;;
19087;SDS011;9676;50.916;13.352;2024-01-30T08:01:07;15.07;;;13.53;;
19087;SDS011;9676;50.916;13.352;2024-01-30T08:03:57;15.23;;;13.63;;
19087;SDS011;9676;50.916;13.352;2024-01-30T08:06:47;15.20;;;13.50;;
19087;SDS011;9676;50.916;13.352;2024-01-30T08:09:37;14.37;;;12.87;;
19087;SDS011;9676;50.916;13.352;2024-01-30T08:12:26;14.83;;;13.40;;
19087;SDS011;9676;50.916;13.352;2024-01-30T08:15:15;15.73;;;13.67;;
19087;SDS011;9676;50.916;13.352;2024-01-30T08:18:06;15.67;;;13.93;;
19087;SDS011;9676;50.916;13.352;2024-01-30T08:20:56;16.50;;;13.60;;
19087;SDS011;9676;50.916;13.352;2024-01-30T08:23:45;16.10;;;13.80;;
19087;SDS011;9676;50.916;13.352;2024-01-30T08:26:35;16.43;;;13.60;;
19087;SDS011;9676;50.916;13.352;2024-01-30T08:29:24;16.70;;;13.60;;
19087;SDS011;9676;50.916;13.352;2024-01-30T08:32:13;17.07;;;13.40;;
19087;SDS011;9676;50.916;13.352;2024-01-30T08:35:04;15.57;;;13.97;;
19087;SDS011;9676;50.916;13.352;2024-01-30T08:37:56;15.63;;;13.43;;
19087;SDS011;9676;50.916;13.352;2024-01-30T08:40:46;14.60;;;13.20;;
19087;SDS011;9676;50.916;13.352;2024-01-30T08:43:36;15.07;;;13.33;;
19087;SDS011;9676;50.916;13.352;2024-01-30T08:46:25;15.00;;;12.80;;
19087;SDS011;9676;50.916;13.352;2024-01-30T08:49:15;13.97;;;12.60;;
19087;SDS011;9676;50.916;13.352;2024-01-30T08:52:07;15.03;;;13.30;;
19087;SDS011;9676;50.916;13.352;2024-01-30T08:54:56;14.87;;;13.27;;
19087;SDS011;9676;50.916;13.352;2024-01-30T08:57:46;14.60;;;13.00;;
19087;SDS011;9676;50.916;13.352;2024-01-30T09:00:35;14.53;;;13.10;;
19087;SDS011;9676;50.916;13.352;2024-01-30T09:03:25;14.83;;;13.10;;
19087;SDS011;9676;50.916;13.352;2024-01-30T09:06:15;14.30;;;12.80;;
19087;SDS011;9676;50.916;13.352;2024-01-30T09:09:06;14.80;;;13.23;;
19087;SDS011;9676;50.916;13.352;2024-01-30T09:11:56;14.03;;;12.63;;
19087;SDS011;9676;50.916;13.352;2024-01-30T09:14:49;13.80;;;12.30;;
19087;SDS011;9676;50.916;13.352;2024-01-30T09:17:38;15.27;;;13.73;;
19087;SDS011;9676;50.916;13.352;2024-01-30T09:20:28;14.37;;;12.60;;
19087;SDS011;9676;50.916;13.352;2024-01-30T09:23:21;14.10;;;12.57;;
19087;SDS011;9676;50.916;13.352;2024-01-30T09:26:12;14.60;;;13.10;;
19087;SDS011;9676;50.916;13.352;2024-01-30T09:29:01;16.00;;;13.30;;
19087;SDS011;9676;50.916;13.352;2024-01-30T09:31:50;14.53;;;13.03;;
19087;SDS011;9676;50.916;13.352;2024-01-30T09:34:40;15.50;;;13.90;;
19087;SDS011;9676;50.916;13.352;2024-01-30T09:37:29;14.33;;;12.93;;
19087;SDS011;9676;50.916;13.352;2024-01-30T09:40:19;15.00;;;13.40;;
19087;SDS011;9676;50.916;13.352;2024-01-30T09:43:10;22.37;;;14.17;;
19087;SDS011;9676;50.916;13.352;2024-01-30T09:46:05;15.40;;;13.80;;
19087;SDS011;9676;50.916;13.352;2024-01-30T09:49:00;17.20;;;15.10;;
19087;SDS011;9676;50.916;13.352;2024-01-30T09:51:51;15.90;;;13.57;;
19087;SDS011;9676;50.916;13.352;2024-01-30T09:54:42;17.23;;;14.00;;
19087;SDS011;9676;50.916;13.352;2024-01-30T09:57:33;15.43;;;13.83;;
19087;SDS011;9676;50.916;13.352;2024-01-30T10:00:24;19.23;;;14.97;;
19087;SDS011;9676;50.916;13.352;2024-01-30T10:03:15;15.80;;;13.53;;
19087;SDS011;9676;50.916;13.352;2024-01-30T10:06:06;14.13;;;12.73;;
19087;SDS011;9676;50.916;13.352;2024-01-30T10:08:57;14.53;;;13.03;;
19087;SDS011;9676;50.916;13.352;2024-01-30T10:11:46;17.60;;;13.30;;
19087;SDS011;9676;50.916;13.352;2024-01-30T10:14:37;14.70;;;13.20;;
19087;SDS011;9676;50.916;13.352;2024-01-30T10:17:28;13.93;;;12.53;;
19087;SDS011;9676;50.916;13.352;2024-01-30T10:20:20;14.63;;;13.10;;
19087;SDS011;9676;50.916;13.352;2024-01-30T10:23:11;15.47;;;13.90;;
19087;SDS011;9676;50.916;13.352;2024-01-30T10:26:00;14.30;;;12.90;;
19087;SDS011;9676;50.916;13.352;2024-01-30T10:28:52;14.63;;;12.90;;
19087;SDS011;9676;50.916;13.352;2024-01-30T10:31:41;16.93;;;13.50;;
19087;SDS011;9676;50.916;13.352;2024-01-30T10:34:32;14.33;;;12.77;;
19087;SDS011;9676;50.916;13.352;2024-01-30T10:37:23;13.97;;;12.53;;
19087;SDS011;9676;50.916;13.352;2024-01-30T10:40:15;22.40;;;12.50;;
19087;SDS011;9676;50.916;13.352;2024-01-30T10:43:05;14.40;;;12.90;;
19087;SDS011;9676;50.916;13.352;2024-01-30T10:46:01;14.10;;;12.33;;
19087;SDS011;9676;50.916;13.352;2024-01-30T10:49:00;14.70;;;13.13;;
19087;SDS011;9676;50.916;13.352;2024-01-30T10:51:51;15.10;;;13.50;;
19087;SDS011;9676;50.916;13.352;2024-01-30T10:54:43;25.50;;;13.70;;
19087;SDS011;9676;50.916;13.352;2024-01-30T10:57:34;18.10;;;14.03;;
19087;SDS011;9676;50.916;13.352;2024-01-30T11:00:24;15.60;;;13.30;;
19087;SDS011;9676;50.916;13.352;2024-01-30T11:03:14;18.03;;;13.90;;
19087;SDS011;9676;50.916;13.352;2024-01-30T11:06:04;17.07;;;13.80;;
19087;SDS011;9676;50.916;13.352;2024-01-30T11:09:04;16.90;;;13.87;;
19087;SDS011;9676;50.916;13.352;2024-01-30T11:11:58;15.37;;;13.77;;
19087;SDS011;9676;50.916;13.352;2024-01-30T11:14:48;14.90;;;13.33;;
19087;SDS011;9676;50.916;13.352;2024-01-30T11:17:39;15.80;;;13.43;;
19087;SDS011;9676;50.916;13.352;2024-01-30T11:20:33;15.00;;;13.03;;
19087;SDS011;9676;50.916;13.352;2024-01-30T11:23:25;14.33;;;12.73;;
19087;SDS011;9676;50.916;13.352;2024-01-30T11:26:16;15.07;;;12.80;;
19087;SDS011;9676;50.916;13.352;2024-01-30T11:29:08;17.47;;;13.63;;
19087;SDS011;9676;50.916;13.352;2024-01-30T11:31:57;14.30;;;12.80;;
19087;SDS011;9676;50.916;13.352;2024-01-30T11:34:47;14.10;;;12.60;;
19087;SDS011;9676;50.916;13.352;2024-01-30T11:37:38;14.73;;;13.00;;
19087;SDS011;9676;50.916;13.352;2024-01-30T11:40:28;13.50;;;12.10;;
19087;SDS011;9676;50.916;13.352;2024-01-30T11:43:22;14.50;;;12.97;;
19087;SDS011;9676;50.916;13.352;2024-01-30T11:46:13;15.37;;;12.57;;
19087;SDS011;9676;50.916;13.352;2024-01-30T11:49:02;15.47;;;13.00;;
19087;SDS011;9676;50.916;13.352;2024-01-30T11:51:52;13.43;;;12.03;;
19087;SDS011;9676;50.916;13.352;2024-01-30T11:54:42;13.23;;;11.87;;
19087;SDS011;9676;50.916;13.352;2024-01-30T11:57:32;12.80;;;11.50;;
19087;SDS011;9676;50.916;13.352;2024-01-30T12:00:24;12.37;;;11.23;;
19087;SDS011;9676;50.916;13.352;2024-01-30T12:03:14;13.13;;;11.80;;
19087;SDS011;9676;50.916;13.352;2024-01-30T12:06:03;14.93;;;11.53;;
19087;SDS011;9676;50.916;13.352;2024-01-30T12:08:57;17.07;;;13.53;;
19087;SDS011;9676;50.916;13.352;2024-01-30T12:11:48;16.00;;;13.07;;
19087;SDS011;9676;50.916;13.352;2024-01-30T12:14:38;13.70;;;12.30;;
19087;SDS011;9676;50.916;13.352;2024-01-30T12:17:31;13.30;;;12.00;;
19087;SDS011;9676;50.916;13.352;2024-01-30T12:20:22;14.30;;;12.50;;
19087;SDS011;9676;50.916;13.352;2024-01-30T12:23:12;13.07;;;11.77;;
19087;SDS011;9676;50.916;13.352;2024-01-30T12:26:01;12.83;;;11.53;;
19087;SDS011;9676;50.916;13.352;2024-01-30T12:28:54;13.70;;;11.57;;
19087;SDS011;9676;50.916;13.352;2024-01-30T12:31:46;14.47;;;12.07;;
19087;SDS011;9676;50.916;13.352;2024-01-30T12:34:41;13.90;;;12.50;;
19087;SDS011;9676;50.916;13.352;2024-01-30T12:37:47;14.37;;;12.23;;
19087;SDS011;9676;50.916;13.352;2024-01-30T12:40:38;12.50;;;11.30;;
19087;SDS011;9676;50.916;13.352;2024-01-30T12:43:29;13.60;;;12.20;;
19087;SDS011;9676;50.916;13.352;2024-01-30T12:46:27;13.60;;;12.20;;
19087;SDS011;9676;50.916;13.352;2024-01-30T12:49:17;13.33;;;12.03;;
19087;SDS011;9676;50.916;13.352;2024-01-30T12:52:08;13.10;;;11.80;;
19087;SDS011;9676;50.916;13.352;2024-01-30T12:54:57;13.03;;;11.73;;
19087;SDS011;9676;50.916;13.352;2024-01-30T12:57:47;16.50;;;12.33;;
19087;SDS011;9676;50.916;13.352;2024-01-30T13:00:36;13.00;;;11.80;;
19087;SDS011;9676;50.916;13.352;2024-01-30T13:03:26;13.57;;;12.17;;
19087;SDS011;9676;50.916;13.352;2024-01-30T13:06:15;12.67;;;11.47;;
19087;SDS011;9676;50.916;13.352;2024-01-30T13:09:06;12.80;;;11.60;;
19087;SDS011;9676;50.916;13.352;2024-01-30T13:11:56;13.37;;;11.33;;
19087;SDS011;9676;50.916;13.352;2024-01-30T13:14:46;13.47;;;12.10;;
19087;SDS011;9676;50.916;13.352;2024-01-30T13:17:35;12.53;;;11.33;;
19087;SDS011;9676;50.916;13.352;2024-01-30T13:20:25;12.67;;;11.37;;
19087;SDS011;9676;50.916;13.352;2024-01-30T13:23:14;12.70;;;11.40;;
19087;SDS011;9676;50.916;13.352;2024-01-30T13:26:05;13.93;;;12.17;;
19087;SDS011;9676;50.916;13.352;2024-01-30T13:28:55;15.77;;;13.30;;
19087;SDS011;9676;50.916;13.352;2024-01-30T13:31:45;13.50;;;11.80;;
19087;SDS011;9676;50.916;13.352;2024-01-30T13:34:34;13.20;;;11.80;;
19087;SDS011;9676;50.916;13.352;2024-01-30T13:37:24;13.10;;;11.80;;
19087;SDS011;9676;50.916;13.352;2024-01-30T13:40:13;12.80;;;11.50;;
19087;SDS011;9676;50.916;13.352;2024-01-30T13:43:05;12.93;;;11.50;;
19087;SDS011;9676;50.916;13.352;2024-01-30T13:45:55;13.73;;;12.13;;
19087;SDS011;9676;50.916;13.352;2024-01-30T13:48:45;12.77;;;11.47;;
19087;SDS011;9676;50.916;13.352;2024-01-30T13:51:35;13.37;;;12.07;;
19087;SDS011;9676;50.916;13.352;2024-01-30T13:54:24;13.30;;;11.90;;
19087;SDS011;9676;50.916;13.352;2024-01-30T13:57:13;12.70;;;11.40;;
19087;SDS011;9676;50.916;13.352;2024-01-30T14:00:05;14.50;;;13.00;;
19087;SDS011;9676;50.916;13.352;2024-01-30T14:03:01;12.63;;;11.33;;
19087;SDS011;9676;50.916;13.352;2024-01-30T14:05:51;13.50;;;12.13;;
19087;SDS011;9676;50.916;13.352;2024-01-30T14:08:41;13.83;;;12.40;;
19087;SDS011;9676;50.916;13.352;2024-01-30T14:11:39;13.23;;;11.80;;
19087;SDS011;9676;50.916;13.352;2024-01-30T14:14:30;13.40;;;12.00;;
19087;SDS011;9676;50.916;13.352;2024-01-30T14:17:20;13.73;;;12.03;;
19087;SDS011;9676;50.916;13.352;2024-01-30T14:20:10;14.37;;;12.30;;
19087;SDS011;9676;50.916;13.352;2024-01-30T14:23:00;13.13;;;11.73;;
19087;SDS011;9676;50.916;13.352;2024-01-30T14:25:49;12.77;;;11.47;;
19087;SDS011;9676;50.916;13.352;2024-01-30T14:28:39;13.90;;;12.40;;
19087;SDS011;9676;50.916;13.352;2024-01-30T14:31:29;12.33;;;11.13;;
19087;SDS011;9676;50.916;13.352;2024-01-30T14:34:20;12.70;;;11.40;;
19087;SDS011;9676;50.916;13.352;2024-01-30T14:37:09;12.70;;;11.50;;
19087;SDS011;9676;50.916;13.352;2024-01-30T14:39:59;13.30;;;12.00;;
19087;SDS011;9676;50.916;13.352;2024-01-30T14:42:48;13.00;;;11.70;;
19087;SDS011;9676;50.916;13.352;2024-01-30T14:45:37;13.73;;;12.33;;
19087;SDS011;9676;50.916;13.352;2024-01-30T14:48:27;13.40;;;12.00;;
19087;SDS011;9676;50.916;13.352;2024-01-30T14:51:19;13.07;;;11.70;;
19087;SDS011;9676;50.916;13.352;2024-01-30T14:54:08;12.60;;;11.40;;
19087;SDS011;9676;50.916;13.352;2024-01-30T14:56:58;12.73;;;11.53;;
19087;SDS011;9676;50.916;13.352;2024-01-30T14:59:48;13.03;;;11.70;;
19087;SDS011;9676;50.916;13.352;2024-01-30T15:02:38;12.80;;;11.60;;
19087;SDS011;9676;50.916;13.352;2024-01-30T15:05:27;13.00;;;11.70;;
19087;SDS011;9676;50.916;13.352;2024-01-30T15:08:18;13.10;;;11.80;;
19087;SDS011;9676;50.916;13.352;2024-01-30T15:11:09;13.53;;;12.10;;
19087;SDS011;9676;50.916;13.352;2024-01-30T15:13:59;12.83;;;11.63;;
19087;SDS011;9676;50.916;13.352;2024-01-30T15:16:49;13.00;;;11.70;;
19087;SDS011;9676;50.916;13.352;2024-01-30T15:19:38;12.10;;;10.90;;
19087;SDS011;9676;50.916;13.352;2024-01-30T15:22:28;12.77;;;11.47;;
19087;SDS011;9676;50.916;13.352;2024-01-30T15:25:19;13.17;;;11.57;;
19087;SDS011;9676;50.916;13.352;2024-01-30T15:28:08;12.70;;;11.50;;
19087;SDS011;9676;50.916;13.352;2024-01-30T15:30:58;12.43;;;11.23;;
19087;SDS011;9676;50.916;13.352;2024-01-30T15:33:48;13.10;;;11.83;;
19087;SDS011;9676;50.916;13.352;2024-01-30T15:36:37;13.17;;;11.90;;
19087;SDS011;9676;50.916;13.352;2024-01-30T15:39:26;12.90;;;11.60;;
19087;SDS011;9676;50.916;13.352;2024-01-30T15:42:18;12.60;;;11.40;;
19087;SDS011;9676;50.916;13.352;2024-01-30T15:45:07;12.63;;;11.40;;
19087;SDS011;9676;50.916;13.352;2024-01-30T15:47:56;13.10;;;11.50;;
19087;SDS011;9676;50.916;13.352;2024-01-30T15:50:46;13.83;;;11.77;;
19087;SDS011;9676;50.916;13.352;2024-01-30T15:53:35;12.70;;;11.40;;
19087;SDS011;9676;50.916;13.352;2024-01-30T15:56:25;13.03;;;11.60;;
19087;SDS011;9676;50.916;13.352;2024-01-30T15:59:17;13.40;;;11.77;;
19087;SDS011;9676;50.916;13.352;2024-01-30T16:02:06;14.03;;;12.63;;
19087;SDS011;9676;50.916;13.352;2024-01-30T16:04:56;13.00;;;11.70;;
19087;SDS011;9676;50.916;13.352;2024-01-30T16:07:45;13.63;;;12.23;;
19087;SDS011;9676;50.916;13.352;2024-01-30T16:10:35;13.10;;;11.80;;
19087;SDS011;9676;50.916;13.352;2024-01-30T16:13:24;12.90;;;11.60;;
19087;SDS011;9676;50.916;13.352;2024-01-30T16:16:15;13.77;;;12.30;;
19087;SDS011;9676;50.916;13.352;2024-01-30T16:19:05;13.77;;;12.37;;
19087;SDS011;9676;50.916;13.352;2024-01-30T16:21:54;13.63;;;11.97;;
19087;SDS011;9676;50.916;13.352;2024-01-30T16:24:44;14.10;;;12.23;;
19087;SDS011;9676;50.916;13.352;2024-01-30T16:27:34;13.83;;;12.43;;
19087;SDS011;9676;50.916;13.352;2024-01-30T16:30:24;14.43;;;12.63;;
19087;SDS011;9676;50.916;13.352;2024-01-30T16:33:15;18.20;;;12.77;;
19087;SDS011;9676;50.916;13.352;2024-01-30T16:36:05;13.90;;;11.90;;